Time;durP1;ratioP1;P1;durP2;ratioP2;P2;SDS_P1;SDS_P2;PMS_P1;PMS_P2;Temp;Humidity;BMP_temperature;BMP_pressure;BME280_temperature;BME280_humidity;BME280_pressure;Samples;Min_cycle;Max_cycle;Signal;HPM_P1;HPM_P2
2023/03/09 00:01:24;;;;;;;29.40;19.60;;;2.80;99.90;;;;;;4187053;28;20447;-74
2023/03/09 00:03:25;;;;;;;29.45;18.70;;;2.90;99.90;;;;;;4193515;28;20039;-74
2023/03/09 00:05:26;;;;;;;30.50;19.00;;;2.90;99.90;;;;;;4191299;28;20053;-75
2023/03/09 00:07:30;;;;;;;31.05;19.25;;;3.00;99.90;;;;;;4186732;28;20045;-75
2023/03/09 00:09:31;;;;;;;33.25;20.95;;;3.00;99.90;;;;;;4193885;28;20127;-71
2023/03/09 00:11:31;;;;;;;33.40;20.55;;;3.00;99.90;;;;;;4192218;28;20422;-75
2023/03/09 00:13:32;;;;;;;34.45;20.85;;;3.00;99.90;;;;;;4193377;28;20123;-74
2023/03/09 00:15:33;;;;;;;33.13;20.55;;;3.00;99.90;;;;;;4191925;28;20082;-74
2023/03/09 00:17:35;;;;;;;33.70;20.95;;;3.00;99.90;;;;;;4190237;28;20024;-74
2023/03/09 00:19:35;;;;;;;30.58;18.95;;;3.00;99.90;;;;;;4190823;28;20124;-74
2023/03/09 00:21:36;;;;;;;30.45;18.58;;;3.00;99.90;;;;;;4195695;28;20043;-74
2023/03/09 00:23:37;;;;;;;33.45;20.88;;;3.10;99.90;;;;;;4192974;28;20039;-72
2023/03/09 00:25:38;;;;;;;30.98;19.85;;;3.10;99.90;;;;;;4191441;28;20395;-73
2023/03/09 00:27:42;;;;;;;32.42;19.75;;;3.10;99.90;;;;;;4187853;28;20036;-74
2023/03/09 00:29:43;;;;;;;29.20;18.65;;;3.10;99.90;;;;;;4191440;28;20063;-74
2023/03/09 00:31:45;;;;;;;31.98;20.65;;;3.10;99.90;;;;;;4190153;28;20041;-73
2023/03/09 00:33:48;;;;;;;31.70;20.55;;;3.20;99.90;;;;;;4191861;28;20036;-74
2023/03/09 00:35:49;;;;;;;30.27;19.38;;;3.20;99.90;;;;;;4189690;28;20110;-73
2023/03/09 00:37:49;;;;;;;31.52;20.00;;;3.20;99.90;;;;;;4188058;28;20446;-73
2023/03/09 00:39:50;;;;;;;29.83;18.90;;;3.20;99.90;;;;;;4190414;28;20464;-73
2023/03/09 00:41:51;;;;;;;31.58;19.55;;;3.20;99.90;;;;;;4191643;28;20044;-74
2023/03/09 00:43:51;;;;;;;30.30;19.60;;;3.20;99.90;;;;;;4191527;28;20056;-74
2023/03/09 00:45:52;;;;;;;26.67;18.17;;;3.20;99.90;;;;;;4189554;28;20052;-73
2023/03/09 00:47:52;;;;;;;30.35;18.98;;;3.20;99.90;;;;;;4190062;28;20699;-73
2023/03/09 00:49:53;;;;;;;26.58;17.98;;;3.30;99.90;;;;;;4190459;28;20024;-74
2023/03/09 00:51:53;;;;;;;28.15;17.83;;;3.30;99.90;;;;;;4190470;28;20107;-74
2023/03/09 00:53:55;;;;;;;29.35;18.67;;;3.20;99.90;;;;;;4192696;28;20033;-73
2023/03/09 00:55:59;;;;;;;30.45;19.70;;;3.20;99.90;;;;;;4191051;28;20028;-73
2023/03/09 00:58:00;;;;;;;29.77;19.23;;;3.20;99.90;;;;;;4189017;28;20036;-73
2023/03/09 01:00:01;;;;;;;28.00;18.65;;;3.20;99.90;;;;;;4192794;28;20039;-71
2023/03/09 01:02:02;;;;;;;30.70;19.67;;;3.20;99.90;;;;;;4191155;28;20136;-73
2023/03/09 01:04:03;;;;;;;32.20;20.20;;;3.20;99.90;;;;;;4191906;28;20048;-74
2023/03/09 01:06:04;;;;;;;28.45;18.77;;;3.10;99.90;;;;;;4190702;28;20030;-73
2023/03/09 01:08:05;;;;;;;30.02;19.45;;;3.10;99.90;;;;;;4190290;28;20060;-74
2023/03/09 01:10:06;;;;;;;30.88;18.80;;;3.00;99.90;;;;;;4187139;28;20032;-74
2023/03/09 01:12:07;;;;;;;29.65;19.15;;;3.10;99.90;;;;;;4193264;28;20029;-74
2023/03/09 01:14:08;;;;;;;28.38;19.30;;;3.10;99.90;;;;;;4192322;28;20036;-73
2023/03/09 01:16:09;;;;;;;28.83;19.10;;;3.20;99.90;;;;;;4189894;28;20512;-73
2023/03/09 01:18:10;;;;;;;28.85;17.88;;;3.20;99.90;;;;;;4190048;28;20425;-73
2023/03/09 01:20:11;;;;;;;28.95;18.23;;;3.30;99.90;;;;;;4191769;28;20078;-74
2023/03/09 01:22:12;;;;;;;28.02;17.58;;;3.30;99.90;;;;;;4188759;28;20036;-73
2023/03/09 01:24:12;;;;;;;25.55;16.83;;;3.30;99.90;;;;;;4185971;28;20076;-73
2023/03/09 01:26:13;;;;;;;27.17;18.05;;;3.30;99.90;;;;;;4186395;28;20048;-73
2023/03/09 01:28:14;;;;;;;33.20;20.63;;;3.30;99.90;;;;;;4185921;28;20037;-74
2023/03/09 01:30:15;;;;;;;30.00;19.70;;;3.30;99.90;;;;;;4203117;28;20078;-74
2023/03/09 01:32:15;;;;;;;30.65;19.50;;;3.40;99.90;;;;;;4195469;28;20032;-74
2023/03/09 01:34:16;;;;;;;29.00;19.33;;;3.30;99.90;;;;;;4189094;28;20033;-74
2023/03/09 01:36:18;;;;;;;28.70;19.27;;;3.30;99.90;;;;;;4188413;28;20124;-74
2023/03/09 01:38:18;;;;;;;25.08;17.92;;;3.40;99.90;;;;;;4190304;28;20033;-74
2023/03/09 01:40:22;;;;;;;28.80;17.75;;;3.40;99.90;;;;;;4191551;28;20115;-74
2023/03/09 01:42:22;;;;;;;30.27;19.92;;;3.40;99.90;;;;;;4192396;28;20037;-74
2023/03/09 01:44:23;;;;;;;29.25;18.83;;;3.40;99.90;;;;;;4192645;28;20037;-74
2023/03/09 01:46:31;;;;;;;25.63;17.20;;;3.40;99.90;;;;;;4190223;28;20029;-74
2023/03/09 01:48:32;;;;;;;25.77;17.17;;;3.50;99.90;;;;;;4190007;28;20112;-73
2023/03/09 01:50:35;;;;;;;28.27;18.48;;;3.40;99.90;;;;;;4188034;28;20519;-74
2023/03/09 01:52:36;;;;;;;25.33;17.27;;;3.40;99.90;;;;;;4191724;28;20040;-74
2023/03/09 01:55:00;;;;;;;25.08;17.15;;;3.40;99.90;;;;;;4192033;28;20471;-74
2023/03/09 01:57:13;;;;;;;23.17;16.13;;;3.40;99.90;;;;;;4187999;28;20060;-74
2023/03/09 01:59:14;;;;;;;26.95;17.98;;;3.50;99.90;;;;;;4190899;28;20043;-74
2023/03/09 02:01:16;;;;;;;26.33;18.02;;;3.50;99.90;;;;;;4191558;28;20399;-74
2023/03/09 02:03:31;;;;;;;27.70;17.80;;;3.50;99.90;;;;;;4193663;28;20058;-74
2023/03/09 02:05:44;;;;;;;25.10;17.00;;;3.50;99.90;;;;;;4189594;28;20040;-72
2023/03/09 02:07:46;;;;;;;;;;;3.50;99.90;;;;;;4187891;28;20547;-74
2023/03/09 02:09:53;;;;;;;27.00;17.70;;;3.60;99.90;;;;;;4193683;28;19909;-74
2023/03/09 02:11:55;;;;;;;27.80;17.85;;;3.50;99.90;;;;;;4190899;28;20093;-74
2023/03/09 02:13:55;;;;;;;26.85;17.23;;;3.60;99.90;;;;;;4189874;28;20070;-74
2023/03/09 02:15:56;;;;;;;24.85;17.10;;;3.50;99.90;;;;;;4188832;28;20041;-74
2023/03/09 02:17:57;;;;;;;24.52;16.63;;;3.60;99.90;;;;;;4189229;28;20067;-74
2023/03/09 02:20:08;;;;;;;24.83;17.45;;;3.60;99.90;;;;;;4192393;28;20033;-74
2023/03/09 02:22:10;;;;;;;26.67;18.20;;;3.60;99.90;;;;;;4189384;28;20060;-73
2023/03/09 02:24:19;;;;;;;28.20;18.77;;;3.60;99.90;;;;;;4191893;28;20395;-73
2023/03/09 02:26:54;;;;;;;26.02;16.98;;;3.60;99.90;;;;;;4189892;28;20044;-74
2023/03/09 02:28:55;;;;;;;24.60;16.63;;;3.60;99.90;;;;;;4190652;28;20498;-74
2023/03/09 02:30:56;;;;;;;24.88;17.02;;;3.60;99.90;;;;;;4188270;28;20032;-74
2023/03/09 02:33:25;;;;;;;26.33;17.58;;;3.60;99.90;;;;;;4192437;28;20541;-74
2023/03/09 02:35:26;;;;;;;26.23;18.02;;;3.60;99.90;;;;;;4190154;28;22087;-74
2023/03/09 02:37:29;;;;;;;26.17;17.88;;;3.60;99.90;;;;;;4189581;28;20036;-74
2023/03/09 02:39:36;;;;;;;30.50;20.02;;;3.70;99.90;;;;;;4195203;28;20063;-74
2023/03/09 02:41:37;;;;;;;27.35;17.20;;;3.70;99.90;;;;;;4185938;28;20067;-74
2023/03/09 02:43:49;;;;;;;26.67;17.50;;;3.70;99.90;;;;;;4195248;28;20395;-74
2023/03/09 02:45:51;;;;;;;28.73;18.35;;;3.70;99.90;;;;;;4190756;28;20032;-74
2023/03/09 02:47:54;;;;;;;25.00;16.83;;;3.80;99.90;;;;;;4189037;28;20089;-74
2023/03/09 02:49:54;;;;;;;28.38;19.42;;;3.80;99.90;;;;;;4192620;28;20082;-74
2023/03/09 02:51:55;;;;;;;29.38;19.27;;;3.80;99.90;;;;;;4194357;28;20036;-74
2023/03/09 02:53:56;;;;;;;29.27;18.63;;;3.80;99.90;;;;;;4195646;28;20041;-74
2023/03/09 02:55:56;;;;;;;27.20;17.85;;;3.80;99.90;;;;;;4192954;28;20040;-74
2023/03/09 02:57:57;;;;;;;26.35;17.15;;;3.80;99.90;;;;;;4191312;28;20505;-75
2023/03/09 02:59:57;;;;;;;28.90;18.15;;;3.80;99.90;;;;;;4191259;28;20048;-74
2023/03/09 03:01:58;;;;;;;30.33;19.33;;;3.80;99.90;;;;;;4190593;28;20045;-74
2023/03/09 03:03:59;;;;;;;25.58;16.90;;;3.80;99.90;;;;;;4194626;28;20143;-75
2023/03/09 03:06:00;;;;;;;26.65;17.30;;;3.90;99.90;;;;;;4189691;28;20117;-74
2023/03/09 03:08:00;;;;;;;27.13;17.92;;;3.90;99.90;;;;;;4190729;28;20040;-74
2023/03/09 03:10:01;;;;;;;26.17;17.05;;;3.90;99.90;;;;;;4194172;28;20067;-75
2023/03/09 03:12:02;;;;;;;25.17;16.83;;;3.90;99.90;;;;;;4196090;28;20447;-75
2023/03/09 03:14:02;;;;;;;26.35;17.40;;;3.90;99.90;;;;;;4194598;28;20043;-74
2023/03/09 03:16:03;;;;;;;26.70;16.80;;;3.90;99.90;;;;;;4190359;28;20029;-72
2023/03/09 03:18:04;;;;;;;27.65;17.88;;;3.90;99.90;;;;;;4191481;28;20396;-73
2023/03/09 03:20:11;;;;;;;27.15;18.05;;;3.90;99.90;;;;;;4194868;28;20198;-74
2023/03/09 03:22:12;;;;;;;28.38;18.08;;;3.90;99.90;;;;;;4190629;28;20064;-74
2023/03/09 03:24:13;;;;;;;29.23;19.13;;;3.90;99.90;;;;;;4194926;28;20572;-74
2023/03/09 03:26:13;;;;;;;25.63;16.63;;;3.90;99.90;;;;;;4191750;28;20047;-74
2023/03/09 03:28:14;;;;;;;25.85;17.08;;;3.90;99.90;;;;;;4191945;28;20119;-74
2023/03/09 03:30:15;;;;;;;26.67;17.25;;;3.90;99.90;;;;;;4193153;28;20040;-74
2023/03/09 03:32:15;;;;;;;28.63;19.23;;;3.90;99.90;;;;;;4193523;28;20514;-74
2023/03/09 03:34:16;;;;;;;28.75;18.58;;;3.90;99.90;;;;;;4194414;28;20033;-74
2023/03/09 03:36:16;;;;;;;30.25;18.90;;;3.90;99.90;;;;;;4188497;28;20029;-74
2023/03/09 03:38:17;;;;;;;26.27;17.58;;;3.80;99.90;;;;;;4191853;28;20041;-74
2023/03/09 03:40:19;;;;;;;27.00;18.15;;;3.90;99.90;;;;;;4192865;28;20054;-74
2023/03/09 03:42:20;;;;;;;29.00;18.70;;;3.90;99.90;;;;;;4189724;28;20089;-74
2023/03/09 03:44:20;;;;;;;30.70;19.45;;;3.90;99.90;;;;;;4194089;28;20091;-74
2023/03/09 03:46:21;;;;;;;26.60;17.65;;;3.90;99.90;;;;;;4189283;28;20033;-74
2023/03/09 03:48:21;;;;;;;28.13;18.67;;;3.90;99.90;;;;;;4192542;28;20123;-74
2023/03/09 03:50:22;;;;;;;28.90;19.13;;;3.90;99.90;;;;;;4192686;28;20033;-74
2023/03/09 03:52:23;;;;;;;28.23;18.15;;;3.90;99.90;;;;;;4192607;28;20495;-74
2023/03/09 03:54:24;;;;;;;29.08;19.17;;;3.90;99.90;;;;;;4184214;28;20076;-74
2023/03/09 03:56:24;;;;;;;29.48;19.20;;;3.90;99.90;;;;;;4191496;28;20037;-74
2023/03/09 03:58:25;;;;;;;27.88;18.83;;;4.00;99.90;;;;;;4191095;28;20032;-74
2023/03/09 04:00:26;;;;;;;28.10;18.10;;;4.00;99.90;;;;;;4189792;28;20036;-74
2023/03/09 04:02:27;;;;;;;30.20;19.00;;;3.90;99.90;;;;;;4193184;28;20047;-74
2023/03/09 04:04:27;;;;;;;29.35;19.08;;;3.90;99.90;;;;;;4192028;28;20056;-74
2023/03/09 04:06:28;;;;;;;33.45;20.75;;;4.00;99.90;;;;;;4189058;28;20041;-74
2023/03/09 04:08:29;;;;;;;31.42;20.25;;;4.00;99.90;;;;;;4192551;28;20052;-74
2023/03/09 04:10:30;;;;;;;29.55;19.23;;;4.00;99.90;;;;;;4192727;28;20039;-74
2023/03/09 04:12:30;;;;;;;29.98;19.50;;;4.00;99.90;;;;;;4187484;28;20074;-74
2023/03/09 04:14:33;;;;;;;32.70;20.15;;;4.00;99.90;;;;;;4193953;28;20152;-74
2023/03/09 04:16:33;;;;;;;31.00;19.73;;;4.00;99.90;;;;;;4184245;28;20044;-74
2023/03/09 04:18:34;;;;;;;33.47;20.85;;;4.00;99.90;;;;;;4190935;28;20467;-71
2023/03/09 04:20:37;;;;;;;33.13;21.10;;;4.00;99.90;;;;;;4197985;28;20028;-74
2023/03/09 04:22:37;;;;;;;30.92;19.33;;;4.00;99.90;;;;;;4192859;28;20482;-74
2023/03/09 04:24:38;;;;;;;31.35;19.83;;;4.00;99.90;;;;;;4192774;28;20068;-74
2023/03/09 04:26:39;;;;;;;33.88;21.25;;;4.00;99.90;;;;;;4184103;28;20074;-74
2023/03/09 04:28:39;;;;;;;34.10;20.90;;;4.00;99.90;;;;;;4188037;28;20052;-74
2023/03/09 04:30:40;;;;;;;38.83;22.42;;;4.00;99.90;;;;;;4192225;28;20216;-74
2023/03/09 04:32:40;;;;;;;31.75;19.80;;;4.00;99.90;;;;;;4188607;28;21689;-72
2023/03/09 04:34:41;;;;;;;30.55;19.48;;;4.00;99.90;;;;;;4193037;28;20048;-72
2023/03/09 04:36:42;;;;;;;29.45;19.65;;;4.00;99.90;;;;;;4187633;28;20036;-74
2023/03/09 04:38:42;;;;;;;35.97;20.98;;;4.00;99.90;;;;;;4191897;28;20048;-74
2023/03/09 04:40:43;;;;;;;31.58;20.17;;;4.00;99.90;;;;;;4192082;28;20048;-74
2023/03/09 04:42:43;;;;;;;32.63;20.55;;;4.00;99.90;;;;;;4192108;28;20067;-74
2023/03/09 04:44:44;;;;;;;34.03;21.70;;;4.00;99.90;;;;;;4192569;28;20048;-74
2023/03/09 04:46:45;;;;;;;35.33;22.92;;;4.00;99.90;;;;;;4188702;28;20360;-74
2023/03/09 04:48:45;;;;;;;36.65;22.40;;;4.00;99.90;;;;;;4191094;28;20111;-74
2023/03/09 04:50:46;;;;;;;34.08;21.83;;;4.00;99.90;;;;;;4191566;28;20032;-75
2023/03/09 04:52:46;;;;;;;39.20;22.55;;;4.00;99.90;;;;;;4188660;28;20120;-74
2023/03/09 04:54:47;;;;;;;33.42;22.00;;;4.00;99.90;;;;;;4198226;28;20041;-74
2023/03/09 04:56:48;;;;;;;32.97;21.00;;;4.00;99.90;;;;;;4188894;28;20146;-74
2023/03/09 04:58:49;;;;;;;39.83;24.30;;;4.00;99.90;;;;;;4188072;28;20033;-74
2023/03/09 05:00:49;;;;;;;36.30;22.67;;;4.00;99.90;;;;;;4190349;28;20044;-74
2023/03/09 05:02:50;;;;;;;37.58;22.73;;;4.00;99.90;;;;;;4187892;28;20479;-74
2023/03/09 05:04:50;;;;;;;38.58;23.80;;;4.00;99.90;;;;;;4189806;28;20150;-74
2023/03/09 05:06:51;;;;;;;36.70;22.95;;;4.10;99.90;;;;;;4190657;28;20085;-74
2023/03/09 05:08:52;;;;;;;39.08;23.20;;;4.00;99.90;;;;;;4190563;28;20043;-74
2023/03/09 05:10:52;;;;;;;36.03;22.02;;;4.00;99.90;;;;;;4192495;28;20124;-74
2023/03/09 05:12:53;;;;;;;37.85;23.85;;;4.00;99.90;;;;;;4190039;28;20101;-74
2023/03/09 05:14:53;;;;;;;38.67;23.40;;;4.00;99.90;;;;;;4191933;28;20131;-74
2023/03/09 05:16:54;;;;;;;38.33;22.50;;;4.00;99.90;;;;;;4188416;28;20495;-74
2023/03/09 05:18:55;;;;;;;41.22;23.63;;;4.00;99.90;;;;;;4187419;28;20365;-74
2023/03/09 05:20:55;;;;;;;41.65;24.95;;;4.00;99.90;;;;;;4190605;28;20112;-75
2023/03/09 05:22:56;;;;;;;40.00;24.80;;;4.00;99.90;;;;;;4188591;28;20453;-74
2023/03/09 05:24:57;;;;;;;37.90;22.65;;;4.00;99.90;;;;;;4190988;28;20062;-74
2023/03/09 05:26:58;;;;;;;39.78;23.90;;;4.00;99.90;;;;;;4189181;28;20029;-74
2023/03/09 05:28:58;;;;;;;43.05;24.48;;;4.00;99.90;;;;;;4192214;28;20056;-74
2023/03/09 05:30:59;;;;;;;40.72;24.23;;;4.00;99.90;;;;;;4191196;28;20040;-74
2023/03/09 05:32:59;;;;;;;37.88;23.02;;;4.00;99.90;;;;;;4190425;28;20032;-74
2023/03/09 05:35:00;;;;;;;36.60;22.30;;;4.00;99.90;;;;;;4190498;28;20040;-74
2023/03/09 05:37:01;;;;;;;37.90;23.25;;;4.00;99.90;;;;;;4189458;28;20434;-74
2023/03/09 05:39:01;;;;;;;37.78;22.35;;;4.00;99.90;;;;;;4192231;28;20112;-74
2023/03/09 05:41:05;;;;;;;36.42;22.48;;;4.00;99.90;;;;;;4191395;28;20045;-74
2023/03/09 05:43:06;;;;;;;40.42;23.67;;;4.00;99.90;;;;;;4194296;28;20032;-73
2023/03/09 05:45:08;;;;;;;41.15;25.35;;;4.00;99.90;;;;;;4189878;28;20162;-74
2023/03/09 05:47:10;;;;;;;;;;;4.00;99.90;;;;;;4185970;28;20415;-74
2023/03/09 05:49:11;;;;;;;42.13;24.63;;;4.00;99.90;;;;;;4189238;28;19916;-74
2023/03/09 05:51:12;;;;;;;42.60;24.48;;;4.00;99.90;;;;;;4190023;28;20041;-74
2023/03/09 05:53:13;;;;;;;43.42;25.85;;;4.00;99.90;;;;;;4191835;28;20445;-74
2023/03/09 05:55:13;;;;;;;40.28;24.63;;;4.00;99.90;;;;;;4191426;28;20049;-74
2023/03/09 05:57:14;;;;;;;41.95;24.13;;;4.00;99.90;;;;;;4183198;28;20032;-74
2023/03/09 05:59:15;;;;;;;41.17;24.70;;;4.00;99.90;;;;;;4192290;28;20039;-71
2023/03/09 06:01:22;;;;;;;40.25;24.00;;;3.90;99.90;;;;;;4192300;28;20029;-71
2023/03/09 06:03:23;;;;;;;45.10;25.13;;;4.00;99.90;;;;;;4189263;28;20047;-72
2023/03/09 06:05:24;;;;;;;40.17;24.27;;;4.00;99.90;;;;;;4190276;28;20052;-72
2023/03/09 06:07:27;;;;;;;45.78;25.83;;;4.00;99.90;;;;;;4189863;28;20341;-72
2023/03/09 06:09:28;;;;;;;43.50;25.98;;;4.00;99.90;;;;;;4195512;28;20071;-72
2023/03/09 06:11:28;;;;;;;42.08;25.73;;;4.00;99.90;;;;;;4191856;28;20036;-72
2023/03/09 06:13:29;;;;;;;45.03;26.13;;;4.00;99.90;;;;;;4193076;28;20033;-72
2023/03/09 06:15:30;;;;;;;43.38;25.38;;;4.00;99.90;;;;;;4189713;28;20815;-73
2023/03/09 06:17:30;;;;;;;45.53;26.25;;;4.00;99.90;;;;;;4188069;28;20562;-72
2023/03/09 06:19:31;;;;;;;43.75;25.30;;;4.00;99.90;;;;;;4186534;28;20120;-72
2023/03/09 06:21:31;;;;;;;38.67;24.08;;;4.00;99.90;;;;;;4184313;28;20029;-72
2023/03/09 06:23:35;;;;;;;44.30;24.15;;;4.00;99.90;;;;;;4185054;28;20201;-72
2023/03/09 06:25:39;;;;;;;46.65;26.83;;;4.00;99.90;;;;;;4188359;28;20059;-67
2023/03/09 06:27:39;;;;;;;43.30;24.92;;;3.90;99.90;;;;;;4190597;28;20540;-67
2023/03/09 06:29:40;;;;;;;45.90;27.02;;;3.80;99.90;;;;;;4190137;28;20040;-68
2023/03/09 06:31:41;;;;;;;49.83;28.80;;;3.80;99.90;;;;;;4188069;28;20040;-72
2023/03/09 06:33:43;;;;;;;44.45;25.92;;;3.60;99.90;;;;;;4191193;28;20429;-72
2023/03/09 06:35:43;;;;;;;39.13;24.55;;;3.60;99.90;;;;;;4187102;28;20461;-71
2023/03/09 06:37:45;;;;;;;41.53;24.58;;;3.70;99.90;;;;;;4186025;28;20040;-71
2023/03/09 06:39:45;;;;;;;38.80;23.17;;;3.70;99.90;;;;;;4187564;28;20387;-72
2023/03/09 06:41:47;;;;;;;38.50;22.23;;;3.70;99.90;;;;;;4190674;28;20043;-72
2023/03/09 06:43:48;;;;;;;40.22;22.88;;;3.70;99.90;;;;;;4188573;28;20422;-73
2023/03/09 06:45:49;;;;;;;38.95;23.13;;;3.70;99.90;;;;;;4181846;28;20025;-72
2023/03/09 06:47:54;;;;;;;42.55;25.13;;;3.80;99.90;;;;;;4188632;28;20048;-72
2023/03/09 06:49:54;;;;;;;43.05;25.30;;;3.80;99.90;;;;;;4190126;28;20036;-72
2023/03/09 06:51:57;;;;;;;47.15;28.02;;;3.70;99.90;;;;;;4189704;28;20383;-72
2023/03/09 06:53:57;;;;;;;50.13;28.52;;;3.60;99.90;;;;;;4192228;28;21186;-72
2023/03/09 06:56:00;;;;;;;47.70;27.25;;;3.50;99.90;;;;;;4189082;28;20032;-72
2023/03/09 06:58:00;;;;;;;42.90;24.40;;;3.50;99.90;;;;;;4186784;28;20077;-72
2023/03/09 07:00:01;;;;;;;41.53;25.02;;;3.50;99.90;;;;;;4187635;28;20515;-71
2023/03/09 07:02:02;;;;;;;45.63;24.73;;;3.50;99.90;;;;;;4187898;28;20041;-71
2023/03/09 07:04:02;;;;;;;39.05;23.55;;;3.60;99.90;;;;;;4184403;28;20057;-73
2023/03/09 07:06:03;;;;;;;41.65;23.73;;;3.60;99.90;;;;;;4165867;28;20393;-71
2023/03/09 07:08:04;;;;;;;46.10;25.90;;;3.70;99.90;;;;;;4161325;28;20068;-72
2023/03/09 07:10:05;;;;;;;43.15;24.95;;;3.70;99.90;;;;;;4162364;28;20480;-73
2023/03/09 07:12:06;;;;;;;46.63;26.20;;;3.80;99.90;;;;;;4167505;28;20029;-72
2023/03/09 07:14:07;;;;;;;42.92;24.88;;;3.80;99.90;;;;;;4172690;28;20380;-72
2023/03/09 07:16:07;;;;;;;47.38;26.95;;;3.80;99.90;;;;;;4156659;28;20061;-71
2023/03/09 07:18:08;;;;;;;43.08;25.35;;;3.90;99.90;;;;;;4171583;28;20029;-70
2023/03/09 07:20:11;;;;;;;47.70;27.50;;;3.90;99.90;;;;;;4170439;28;20112;-72
2023/03/09 07:22:12;;;;;;;44.70;26.45;;;4.00;99.90;;;;;;4166979;28;20065;-71
2023/03/09 07:24:13;;;;;;;47.45;26.83;;;4.00;99.90;;;;;;4168147;28;20333;-70
2023/03/09 07:26:14;;;;;;;47.70;26.27;;;4.00;99.90;;;;;;4166593;28;20472;-71
2023/03/09 07:28:14;;;;;;;45.78;25.15;;;4.10;99.90;;;;;;4161696;28;20079;-70
2023/03/09 07:30:15;;;;;;;51.15;28.38;;;4.10;99.90;;;;;;4166644;28;20384;-71
2023/03/09 07:32:16;;;;;;;45.95;26.20;;;4.10;99.90;;;;;;4160443;28;20123;-70
2023/03/09 07:34:16;;;;;;;44.00;25.92;;;4.10;99.90;;;;;;4162363;28;20099;-70
2023/03/09 07:36:17;;;;;;;48.42;26.83;;;4.20;99.90;;;;;;4155703;28;20028;-71
2023/03/09 07:38:17;;;;;;;50.33;27.95;;;4.20;99.90;;;;;;4160619;28;20083;-71
2023/03/09 07:40:18;;;;;;;48.05;27.38;;;4.20;99.90;;;;;;4163663;28;20048;-71
2023/03/09 07:42:19;;;;;;;51.33;28.30;;;4.20;99.90;;;;;;4172295;28;20041;-71
2023/03/09 07:44:20;;;;;;;48.65;28.35;;;4.20;99.90;;;;;;4153612;28;20048;-71
2023/03/09 07:46:21;;;;;;;51.20;29.02;;;4.20;99.90;;;;;;4165882;28;20040;-71
2023/03/09 07:48:21;;;;;;;47.42;26.98;;;4.20;99.90;;;;;;4163673;28;20061;-71
2023/03/09 07:50:23;;;;;;;48.38;27.25;;;4.30;99.90;;;;;;4157365;28;20041;-71
2023/03/09 07:52:30;;;;;;;51.22;28.95;;;4.30;99.90;;;;;;4164160;28;20047;-71
2023/03/09 07:54:30;;;;;;;57.88;31.42;;;4.30;99.90;;;;;;4174110;28;20044;-71
2023/03/09 07:56:31;;;;;;;54.67;30.30;;;4.30;99.90;;;;;;4163670;28;20041;-71
2023/03/09 07:58:34;;;;;;;61.85;32.25;;;4.30;99.90;;;;;;4165366;28;20160;-71
2023/03/09 08:00:35;;;;;;;58.90;31.88;;;4.30;99.90;;;;;;4161737;28;20043;-71
2023/03/09 08:02:36;;;;;;;57.25;30.42;;;4.30;99.90;;;;;;4166486;28;20032;-71
2023/03/09 08:04:36;;;;;;;54.58;28.73;;;4.30;99.90;;;;;;4180874;28;20052;-71
2023/03/09 08:06:39;;;;;;;52.22;29.40;;;4.30;99.90;;;;;;4184854;28;20047;-71
2023/03/09 08:08:40;;;;;;;49.72;27.90;;;4.30;99.90;;;;;;4187350;28;20067;-70
2023/03/09 08:10:47;;;;;;;56.88;31.30;;;4.40;99.90;;;;;;4187872;28;20070;-71
2023/03/09 08:12:49;;;;;;;53.90;29.27;;;4.40;99.90;;;;;;4189862;28;20036;-71
2023/03/09 08:14:50;;;;;;;57.63;31.05;;;4.40;99.90;;;;;;4188380;28;20380;-71
2023/03/09 08:16:50;;;;;;;50.28;27.17;;;4.40;99.90;;;;;;4186652;28;20046;-71
2023/03/09 08:18:51;;;;;;;53.42;29.73;;;4.40;99.90;;;;;;4189040;28;20033;-71
2023/03/09 08:20:51;;;;;;;57.78;32.13;;;4.40;99.90;;;;;;4188656;28;20563;-71
2023/03/09 08:22:52;;;;;;;52.08;30.23;;;4.40;99.90;;;;;;4187222;28;20067;-71
2023/03/09 08:24:53;;;;;;;55.15;30.13;;;4.50;99.90;;;;;;4188221;28;21295;-71
2023/03/09 08:26:53;;;;;;;54.50;30.20;;;4.50;99.90;;;;;;4185981;28;20044;-71
2023/03/09 08:28:54;;;;;;;59.63;31.98;;;4.50;99.90;;;;;;4186849;28;20401;-71
2023/03/09 08:30:55;;;;;;;55.72;31.00;;;4.50;99.90;;;;;;4187980;28;20043;-71
2023/03/09 08:32:56;;;;;;;54.33;30.38;;;4.50;99.90;;;;;;4186808;28;20075;-71
2023/03/09 08:34:58;;;;;;;55.63;30.27;;;4.50;99.90;;;;;;4185129;28;20810;-72
2023/03/09 08:36:58;;;;;;;56.45;31.67;;;4.50;99.90;;;;;;4183528;28;20408;-71
2023/03/09 08:38:59;;;;;;;55.28;30.50;;;4.50;99.90;;;;;;4186669;28;20090;-72
2023/03/09 08:40:59;;;;;;;57.92;30.70;;;4.50;99.90;;;;;;4178009;28;20041;-71
2023/03/09 08:43:00;;;;;;;56.65;30.77;;;4.50;99.90;;;;;;4189082;28;20047;-71
2023/03/09 08:45:03;;;;;;;58.47;31.60;;;4.50;99.90;;;;;;4186953;28;20047;-71
2023/03/09 08:47:04;;;;;;;55.15;29.85;;;4.60;99.90;;;;;;4182807;28;20042;-73
2023/03/09 08:49:05;;;;;;;53.55;29.80;;;4.60;99.90;;;;;;4186277;28;20064;-72
2023/03/09 08:51:08;;;;;;;58.15;31.13;;;4.60;99.90;;;;;;4186411;28;20037;-71
2023/03/09 08:53:09;;;;;;;60.10;31.83;;;4.60;99.90;;;;;;4186830;28;20433;-71
2023/03/09 08:55:11;;;;;;;62.22;33.28;;;4.60;99.90;;;;;;4186565;28;20155;-72
2023/03/09 08:57:11;;;;;;;59.13;30.93;;;4.60;99.90;;;;;;4185176;28;20045;-71
2023/03/09 08:59:12;;;;;;;63.22;32.47;;;4.70;99.90;;;;;;4187247;28;20343;-71
2023/03/09 09:01:13;;;;;;;68.82;34.45;;;4.70;99.90;;;;;;4185736;28;20040;-71
2023/03/09 09:03:13;;;;;;;62.50;32.40;;;4.60;99.90;;;;;;4185519;28;20473;-72
2023/03/09 09:05:14;;;;;;;51.13;28.73;;;4.70;99.90;;;;;;4184849;28;20052;-70
2023/03/09 09:07:15;;;;;;;58.40;30.02;;;4.70;99.90;;;;;;4185149;28;20411;-72
2023/03/09 09:09:16;;;;;;;56.30;29.48;;;4.80;99.90;;;;;;4182299;28;20044;-71
2023/03/09 09:11:17;;;;;;;54.88;28.67;;;4.80;99.90;;;;;;4186211;28;20048;-72
2023/03/09 09:13:17;;;;;;;52.40;28.88;;;4.80;99.90;;;;;;4186990;28;20074;-72
2023/03/09 09:15:18;;;;;;;52.42;29.45;;;4.80;99.90;;;;;;4186691;28;20490;-73
2023/03/09 09:17:19;;;;;;;51.53;28.05;;;4.80;99.90;;;;;;4182422;28;20043;-71
2023/03/09 09:19:19;;;;;;;54.00;29.85;;;4.80;99.90;;;;;;4186272;28;20058;-71
2023/03/09 09:21:20;;;;;;;53.88;29.33;;;4.80;99.90;;;;;;4186266;28;20064;-72
2023/03/09 09:23:20;;;;;;;52.33;29.30;;;4.80;99.90;;;;;;4183823;28;20658;-72
2023/03/09 09:25:21;;;;;;;56.28;29.75;;;4.90;99.90;;;;;;4181924;28;20052;-72
2023/03/09 09:27:22;;;;;;;49.22;27.88;;;4.90;99.90;;;;;;4184682;28;20124;-72
2023/03/09 09:29:22;;;;;;;52.50;28.10;;;4.90;99.90;;;;;;4185136;28;20041;-71
2023/03/09 09:31:23;;;;;;;49.63;27.92;;;4.90;99.90;;;;;;4183278;28;20033;-72
2023/03/09 09:33:24;;;;;;;52.08;27.73;;;5.00;99.90;;;;;;4186607;28;20131;-71
2023/03/09 09:35:25;;;;;;;47.33;27.15;;;5.00;99.90;;;;;;4182937;28;21493;-71
2023/03/09 09:37:28;;;;;;;50.10;27.42;;;5.00;99.90;;;;;;4183036;28;20406;-71
2023/03/09 09:39:29;;;;;;;;;;;5.00;99.90;;;;;;4188440;28;20045;-71
2023/03/09 09:41:52;;;;;;;49.78;25.83;;;5.00;99.90;;;;;;4188860;28;19916;-71
2023/03/09 09:43:58;;;;;;;46.05;24.65;;;5.00;99.90;;;;;;4189349;28;20036;-73
2023/03/09 09:46:01;;;;;;;47.97;27.38;;;5.00;99.90;;;;;;4185862;28;20506;-71
2023/03/09 09:48:06;;;;;;;54.65;29.13;;;5.00;99.90;;;;;;4188259;28;20410;-71
2023/03/09 09:50:13;;;;;;;59.35;28.67;;;5.10;99.90;;;;;;4188373;28;20403;-73
2023/03/09 09:52:22;;;;;;;52.10;28.60;;;5.10;99.90;;;;;;4188323;28;20086;-71
2023/03/09 09:54:35;;;;;;;53.15;28.35;;;5.10;99.90;;;;;;4185728;28;20044;-71
2023/03/09 09:56:52;;;;;;;51.97;28.65;;;5.10;99.90;;;;;;4187702;28;20113;-71
2023/03/09 09:59:01;;;;;;;55.90;29.52;;;5.20;99.90;;;;;;4185177;28;20040;-71
2023/03/09 10:01:12;;;;;;;50.67;27.13;;;5.20;99.90;;;;;;4182809;28;20499;-71
2023/03/09 10:03:25;;;;;;;55.53;29.08;;;5.20;99.90;;;;;;4185752;28;20037;-71
2023/03/09 10:05:34;;;;;;;55.65;30.00;;;5.30;99.90;;;;;;4184164;28;20473;-71
2023/03/09 10:07:37;;;;;;;57.72;30.90;;;5.30;99.90;;;;;;4185864;28;20045;-71
2023/03/09 10:09:40;;;;;;;55.05;29.38;;;5.30;99.90;;;;;;4185970;28;20037;-71
2023/03/09 10:11:45;;;;;;;52.90;27.65;;;5.30;99.90;;;;;;4186261;28;20049;-72
2023/03/09 10:13:50;;;;;;;59.92;30.00;;;5.30;99.90;;;;;;4185566;28;20449;-71
2023/03/09 10:15:51;;;;;;;55.33;28.23;;;5.40;99.90;;;;;;4185554;28;20041;-72
2023/03/09 10:18:09;;;;;;;54.05;26.92;;;5.40;99.90;;;;;;4185514;28;20166;-71
2023/03/09 10:20:30;;;;;;;46.70;25.27;;;5.40;99.90;;;;;;4187291;28;20041;-72
2023/03/09 10:22:30;;;;;;;55.03;28.95;;;5.40;99.90;;;;;;4186951;28;20065;-72
2023/03/09 10:24:44;;;;;;;56.63;28.95;;;5.50;99.90;;;;;;4190017;28;20672;-72
2023/03/09 10:26:56;;;;;;;57.80;29.50;;;5.50;99.90;;;;;;4187678;28;20094;-71
2023/03/09 10:29:04;;;;;;;55.00;28.77;;;5.40;99.90;;;;;;4187463;28;20047;-72